createdAt,value
2022-11-16T05:00:23.674Z,99724.17
2022-11-16T05:02:52.420Z,99722.54
2022-11-16T05:05:22.161Z,99724.20
2022-11-16T05:07:51.796Z,99723.34
2022-11-16T05:10:24.500Z,99722.94
2022-11-16T05:12:53.514Z,99721.31
2022-11-16T05:15:22.054Z,99719.60
2022-11-16T05:17:52.046Z,99720.95
2022-11-16T05:20:40.844Z,99721.16
2022-11-16T05:23:29.846Z,99719.99
2022-11-16T05:26:01.259Z,99717.90
2022-11-16T05:28:29.245Z,99717.50
2022-11-16T05:30:58.411Z,99718.69
2022-11-16T05:33:27.159Z,99724.36
2022-11-16T05:35:55.113Z,99725.21
2022-11-16T05:38:22.901Z,99719.61
2022-11-16T05:40:53.673Z,99719.77
2022-11-16T05:43:21.513Z,99720.77
2022-11-16T05:45:59.691Z,99722.98
2022-11-16T05:48:27.052Z,99730.02
2022-11-16T05:51:07.307Z,99734.10
2022-11-16T05:53:35.531Z,99736.39
2022-11-16T05:56:04.083Z,99735.77
2022-11-16T05:58:33.549Z,99737.52
2022-11-16T06:01:01.535Z,99734.89
2022-11-16T06:03:30.480Z,99736.40
2022-11-16T06:05:59.255Z,99744.42
2022-11-16T06:08:27.557Z,99745.70
2022-11-16T06:10:55.136Z,99746.96
2022-11-16T06:13:23.372Z,99748.09
2022-11-16T06:15:53.543Z,99749.05
2022-11-16T06:18:21.822Z,99744.19
2022-11-16T06:20:49.967Z,99743.52
2022-11-16T06:23:17.859Z,99742.92
2022-11-16T06:25:45.485Z,99743.69
2022-11-16T06:28:13.888Z,99739.92
2022-11-16T06:30:41.523Z,99738.34
2022-11-16T06:33:09.485Z,99736.08
2022-11-16T06:35:38.177Z,99735.45
2022-11-16T06:38:06.219Z,99728.50
2022-11-16T06:40:34.196Z,99733.86
2022-11-16T06:43:03.851Z,99737.48
2022-11-16T06:45:31.896Z,99738.71
2022-11-16T06:48:00.938Z,99734.34
2022-11-16T06:50:28.148Z,99737.34
2022-11-16T06:52:56.274Z,99737.39
2022-11-16T06:55:24.648Z,99738.61
2022-11-16T06:57:52.710Z,99736.94
2022-11-16T07:00:21.640Z,99743.70
2022-11-16T07:02:50.175Z,99743.52
2022-11-16T07:05:19.570Z,99739.40
2022-11-16T07:07:48.166Z,99741.16
2022-11-16T07:10:16.319Z,99746.21
2022-11-16T07:12:44.420Z,99739.56
2022-11-16T07:15:12.857Z,99743.20
2022-11-16T07:17:43.753Z,99740.58
2022-11-16T07:20:12.730Z,99742.09
2022-11-16T07:22:41.020Z,99741.12
2022-11-16T07:25:12.859Z,99741.31
2022-11-16T07:27:40.883Z,99741.15
2022-11-16T07:30:09.330Z,99741.62
2022-11-16T07:32:40.610Z,99743.60
2022-11-16T07:35:15.163Z,99744.02
2022-11-16T07:37:43.975Z,99743.86
2022-11-16T07:40:12.578Z,99737.21
2022-11-16T07:42:40.669Z,99739.86
2022-11-16T07:45:25.863Z,99742.40
2022-11-16T07:47:58.737Z,99743.73
2022-11-16T07:50:46.806Z,99742.46
2022-11-16T07:53:16.431Z,99735.79
2022-11-16T07:55:44.715Z,99736.16
2022-11-16T07:58:14.498Z,99738.48
2022-11-16T08:00:42.501Z,99734.71
2022-11-16T08:03:13.598Z,99735.77
2022-11-16T08:05:41.819Z,99731.17
2022-11-16T08:08:09.845Z,99734.02
2022-11-16T08:10:38.977Z,99736.33
2022-11-16T08:13:07.042Z,99732.89
2022-11-16T08:15:35.489Z,99732.12
2022-11-16T08:18:06.279Z,99731.40
2022-11-16T08:20:35.249Z,99733.59
2022-11-16T08:23:03.505Z,99734.75
2022-11-16T08:25:34.511Z,99735.02
2022-11-16T08:28:03.106Z,99731.05
2022-11-16T08:30:31.714Z,99731.00
2022-11-16T08:33:00.918Z,99731.30
2022-11-16T08:35:29.057Z,99730.16
2022-11-16T08:37:57.362Z,99735.04
2022-11-16T08:40:25.906Z,99736.84
2022-11-16T08:42:58.068Z,99740.88
2022-11-16T08:45:26.527Z,99740.77
2022-11-16T08:48:03.532Z,99736.27
2022-11-16T08:50:55.560Z,99736.23
2022-11-16T08:53:22.371Z,99733.08
2022-11-16T08:55:50.527Z,99734.16
2022-11-16T08:58:19.052Z,99730.77
2022-11-16T09:00:47.285Z,99731.95
2022-11-16T09:03:15.236Z,99734.05
2022-11-16T09:05:43.792Z,99732.91
2022-11-16T09:08:12.171Z,99737.81
2022-11-16T09:10:40.195Z,99741.06
2022-11-16T09:13:08.415Z,99742.55
2022-11-16T09:15:36.522Z,99746.98
2022-11-16T09:18:04.592Z,99744.61
2022-11-16T09:20:32.419Z,99744.95
2022-11-16T09:23:00.443Z,99746.83
2022-11-16T09:25:28.486Z,99752.11
2022-11-16T09:27:56.441Z,99750.65
2022-11-16T09:30:24.696Z,99750.80
2022-11-16T09:32:52.813Z,99744.11
2022-11-16T09:35:21.394Z,99739.70
2022-11-16T09:37:48.477Z,99743.70
2022-11-16T09:40:16.575Z,99740.07
2022-11-16T09:42:59.878Z,99736.20
2022-11-16T09:45:50.451Z,99735.17
2022-11-16T09:48:19.305Z,99732.78
2022-11-16T09:50:54.821Z,99728.92
2022-11-16T09:53:46.764Z,99732.09
2022-11-16T09:56:25.827Z,99728.17
2022-11-16T09:59:05.371Z,99726.74
2022-11-16T10:01:53.279Z,99726.66
2022-11-16T10:04:38.954Z,99728.01
2022-11-16T10:07:23.243Z,99729.64
2022-11-16T10:09:51.805Z,99730.63
2022-11-16T10:12:19.823Z,99727.93
2022-11-16T10:15:18.138Z,99724.73
2022-11-16T10:18:12.424Z,99713.70
2022-11-16T10:21:08.088Z,99712.22
2022-11-16T10:24:00.233Z,99710.88
2022-11-16T10:26:46.603Z,99709.17
2022-11-16T10:29:20.348Z,99706.11
2022-11-16T10:31:49.683Z,99699.70
2022-11-16T10:34:23.461Z,99702.09
2022-11-16T10:36:51.081Z,99703.46
2022-11-16T10:39:21.079Z,99698.26
2022-11-16T10:41:52.413Z,99702.49
2022-11-16T10:44:43.103Z,99702.27
2022-11-16T10:47:45.101Z,99700.86
2022-11-16T10:50:38.920Z,99700.53
2022-11-16T10:53:07.299Z,99701.54
2022-11-16T10:55:35.471Z,99699.17
2022-11-16T10:58:06.643Z,99696.79
2022-11-16T11:00:52.380Z,99702.77
2022-11-16T11:03:38.176Z,99704.37
2022-11-16T11:06:06.652Z,99704.99
2022-11-16T11:08:34.427Z,99702.25
2022-11-16T11:11:24.904Z,99702.73
2022-11-16T11:14:14.742Z,99702.44
2022-11-16T11:16:42.242Z,99701.10
2022-11-16T11:19:28.334Z,99700.20
2022-11-16T11:21:59.509Z,99706.97
2022-11-16T11:24:44.578Z,99707.32
2022-11-16T11:27:12.615Z,99709.84
2022-11-16T11:29:43.480Z,99707.19
2022-11-16T11:32:22.416Z,99701.89
2022-11-16T11:34:54.572Z,99704.27
2022-11-16T11:37:26.381Z,99701.61
2022-11-16T11:40:21.085Z,99701.52
2022-11-16T11:43:05.702Z,99703.06
2022-11-16T11:45:45.169Z,99698.73
2022-11-16T11:48:42.088Z,99692.95
2022-11-16T11:51:28.127Z,99698.43
2022-11-16T11:54:01.585Z,99701.02
2022-11-16T11:56:32.451Z,99696.99
2022-11-16T11:59:01.168Z,99698.39
2022-11-16T12:02:06.808Z,99694.60
2022-11-16T12:04:48.761Z,99696.40
2022-11-16T12:07:40.101Z,99696.72
2022-11-16T12:10:26.300Z,99701.11
2022-11-16T12:13:05.628Z,99699.78
2022-11-16T12:15:54.386Z,99695.16
2022-11-16T12:18:43.956Z,99695.09
2022-11-16T12:21:35.135Z,99698.59
2022-11-16T12:24:19.996Z,99707.29
2022-11-16T12:26:59.987Z,99709.62
2022-11-16T12:29:37.569Z,99713.85
2022-11-16T12:32:26.721Z,99719.02
2022-11-16T12:35:13.317Z,99720.30
2022-11-16T12:38:00.870Z,99722.02
2022-11-16T12:40:34.755Z,99719.55
2022-11-16T12:43:05.137Z,99720.48
2022-11-16T12:46:06.444Z,99724.33
2022-11-16T12:48:43.977Z,99724.30
2022-11-16T12:51:32.075Z,99724.52
2022-11-16T12:54:23.065Z,99723.08
2022-11-16T12:57:12.065Z,99726.41
2022-11-16T12:59:48.089Z,99727.59
2022-11-16T13:02:30.316Z,99724.89
2022-11-16T13:05:13.678Z,99732.19
2022-11-16T13:07:50.861Z,99735.17
2022-11-16T13:10:32.178Z,99735.34
2022-11-16T13:13:34.994Z,99738.68
2022-11-16T13:15:56.475Z,99739.88
2022-11-16T13:18:26.757Z,99740.70
2022-11-16T13:21:30.833Z,99735.78
2022-11-16T13:24:07.141Z,99741.59
2022-11-16T13:26:59.735Z,99739.29
2022-11-16T13:29:41.770Z,99740.05
2022-11-16T13:32:25.884Z,99745.07
2022-11-16T13:34:53.553Z,99745.44
2022-11-16T13:37:39.996Z,99742.10
2022-11-16T13:40:08.851Z,99744.09
2022-11-16T13:42:59.412Z,99748.02
2022-11-16T13:45:38.932Z,99743.08
2022-11-16T13:48:26.337Z,99743.08
2022-11-16T13:51:00.576Z,99749.02
2022-11-16T13:54:38.025Z,99749.00
2022-11-16T13:56:29.308Z,99749.77
2022-11-16T13:59:00.603Z,99745.20
2022-11-16T14:02:23.644Z,99738.41
2022-11-16T14:05:22.162Z,99744.57
2022-11-16T14:07:51.146Z,99737.13
2022-11-16T14:10:34.567Z,99741.35
2022-11-16T14:13:06.954Z,99739.33
2022-11-16T14:15:37.224Z,99745.54
2022-11-16T14:18:10.727Z,99740.40
2022-11-16T14:20:38.929Z,99738.98
2022-11-16T14:23:17.377Z,99741.37
2022-11-16T14:25:47.911Z,99735.56
2022-11-16T14:28:40.899Z,99740.89
2022-11-16T14:31:26.192Z,99735.17
2022-11-16T14:33:57.270Z,99741.06
2022-11-16T14:36:42.220Z,99741.57
2022-11-16T14:39:17.636Z,99735.00
2022-11-16T14:41:47.054Z,99733.86
2022-11-16T14:44:19.989Z,99738.09
2022-11-16T14:46:48.072Z,99737.23
2022-11-16T14:49:18.322Z,99737.32
2022-11-16T14:51:54.893Z,99735.52
2022-11-16T14:54:38.130Z,99733.15
2022-11-16T14:57:13.004Z,99733.92
2022-11-16T14:59:40.431Z,99727.46
2022-11-16T15:02:21.698Z,99727.06
2022-11-16T15:04:51.752Z,99727.46
2022-11-16T15:07:23.371Z,99728.95
2022-11-16T15:09:56.889Z,99729.08
2022-11-16T15:12:43.385Z,99730.61
2022-11-16T15:15:11.027Z,99725.82
2022-11-16T15:17:40.601Z,99720.30
2022-11-16T15:20:16.217Z,99719.09
2022-11-16T15:22:47.601Z,99718.92
2022-11-16T15:25:43.449Z,99717.54
2022-11-16T15:28:18.963Z,99717.29
2022-11-16T15:30:55.959Z,99717.98
2022-11-16T15:33:29.401Z,99718.46
2022-11-16T15:35:57.310Z,99716.83
2022-11-16T15:38:38.097Z,99719.54
2022-11-16T15:41:07.028Z,99716.36
2022-11-16T15:44:01.460Z,99719.34
2022-11-16T15:46:32.346Z,99721.94
2022-11-16T15:49:00.913Z,99721.61
2022-11-16T15:51:34.001Z,99717.37
2022-11-16T15:54:21.865Z,99713.55
2022-11-16T15:56:50.579Z,99717.85
2022-11-16T15:59:27.066Z,99720.42
2022-11-16T16:01:55.634Z,99717.26
2022-11-16T16:04:25.860Z,99717.34
2022-11-16T16:06:57.799Z,99712.00
2022-11-16T16:09:30.557Z,99711.39
2022-11-16T16:12:21.355Z,99710.46
2022-11-16T16:14:53.285Z,99707.27
2022-11-16T16:17:31.603Z,99703.48
2022-11-16T16:20:03.227Z,99707.02
2022-11-16T16:22:34.221Z,99710.58
2022-11-16T16:25:06.555Z,99707.32
2022-11-16T16:27:42.385Z,99709.12
2022-11-16T16:30:15.128Z,99705.27
2022-11-16T16:32:42.887Z,99710.55
2022-11-16T16:35:22.072Z,99707.34
2022-11-16T16:37:59.093Z,99709.45
2022-11-16T16:40:27.248Z,99709.64
2022-11-16T16:42:56.634Z,99710.95
2022-11-16T16:45:44.153Z,99707.77
2022-11-16T16:48:16.254Z,99712.30
2022-11-16T16:50:44.323Z,99713.39
2022-11-16T16:53:12.997Z,99714.27
2022-11-16T16:55:41.559Z,99716.98
2022-11-16T16:58:13.196Z,99714.11
2022-11-16T17:00:42.490Z,99717.33
2022-11-16T17:03:10.664Z,99721.66
2022-11-16T17:05:38.169Z,99716.42
2022-11-16T17:08:06.866Z,99714.41
2022-11-16T17:10:34.784Z,99715.63
2022-11-16T17:13:03.704Z,99713.31
2022-11-16T17:15:31.610Z,99714.68
2022-11-16T17:18:00.389Z,99715.70
2022-11-16T17:20:28.384Z,99714.67
2022-11-16T17:22:56.574Z,99717.44
2022-11-16T17:25:24.679Z,99723.77
2022-11-16T17:27:52.738Z,99724.28
2022-11-16T17:30:20.750Z,99725.78
2022-11-16T17:32:47.950Z,99728.62
2022-11-16T17:35:15.679Z,99727.13
2022-11-16T17:37:43.681Z,99728.81
2022-11-16T17:40:11.780Z,99730.83
2022-11-16T17:42:39.484Z,99724.85
2022-11-16T17:45:07.729Z,99723.89
2022-11-16T17:47:35.457Z,99720.30
2022-11-16T17:50:04.638Z,99725.27
2022-11-16T17:52:32.574Z,99723.38
2022-11-16T17:55:00.609Z,99722.55
2022-11-16T17:57:27.909Z,99728.27
2022-11-16T17:59:55.232Z,99731.45
2022-11-16T18:02:22.612Z,99732.86
2022-11-16T18:04:51.481Z,99738.26
2022-11-16T18:07:18.942Z,99738.35
2022-11-16T18:09:46.394Z,99740.38
2022-11-16T18:12:13.592Z,99738.44
2022-11-16T18:14:42.407Z,99740.23
2022-11-16T18:17:09.989Z,99741.45
2022-11-16T18:19:37.283Z,99743.78
2022-11-16T18:22:04.712Z,99740.64
2022-11-16T18:24:32.075Z,99747.96
2022-11-16T18:26:59.297Z,99750.69
2022-11-16T18:29:26.771Z,99752.54
2022-11-16T18:31:54.838Z,99755.20
2022-11-16T18:34:22.202Z,99759.96
2022-11-16T18:36:51.344Z,99763.48
2022-11-16T18:39:18.728Z,99761.91
2022-11-16T18:41:51.781Z,99764.80
2022-11-16T18:44:22.333Z,99762.46
2022-11-16T18:46:49.716Z,99766.58
2022-11-16T18:49:17.493Z,99768.17
2022-11-16T18:51:44.795Z,99763.91
2022-11-16T18:54:12.210Z,99767.54
2022-11-16T18:56:39.754Z,99759.13
2022-11-16T18:59:07.540Z,99760.98
2022-11-16T19:01:35.331Z,99756.18
2022-11-16T19:04:03.573Z,99750.27
2022-11-16T19:06:32.879Z,99746.09
2022-11-16T19:09:00.811Z,99754.59
2022-11-16T19:11:28.890Z,99747.72
2022-11-16T19:14:07.926Z,99741.95
2022-11-16T19:16:35.992Z,99739.91
2022-11-16T19:19:04.464Z,99741.80
2022-11-16T19:21:34.147Z,99742.66
2022-11-16T19:24:01.938Z,99745.05
2022-11-16T19:26:29.369Z,99748.28
2022-11-16T19:28:57.046Z,99748.59
2022-11-16T19:31:26.008Z,99743.30
2022-11-16T19:33:55.480Z,99743.23
2022-11-16T19:36:24.064Z,99746.09
2022-11-16T19:38:51.746Z,99740.02
2022-11-16T19:41:23.600Z,99740.16
2022-11-16T19:43:59.944Z,99749.02
2022-11-16T19:46:29.832Z,99746.48
2022-11-16T19:48:57.515Z,99748.03
2022-11-16T19:51:27.896Z,99747.44
2022-11-16T19:53:55.519Z,99747.36
2022-11-16T19:56:24.506Z,99744.75
2022-11-16T19:58:52.376Z,99744.95
2022-11-16T20:01:28.102Z,99746.66
2022-11-16T20:03:57.809Z,99751.64
2022-11-16T20:06:29.954Z,99753.37
2022-11-16T20:09:01.083Z,99751.82
2022-11-16T20:11:34.149Z,99756.15
2022-11-16T20:14:03.901Z,99756.08
2022-11-16T20:16:38.463Z,99752.80
2022-11-16T20:19:11.272Z,99759.64
2022-11-16T20:21:43.668Z,99760.39
2022-11-16T20:24:14.403Z,99764.69
2022-11-16T20:26:45.215Z,99764.33
2022-11-16T20:29:14.242Z,99765.34
2022-11-16T20:31:43.229Z,99761.66
2022-11-16T20:34:16.435Z,99760.45
2022-11-16T20:36:46.558Z,99760.00
2022-11-16T20:39:15.792Z,99762.83
2022-11-16T20:41:44.304Z,99760.23
2022-11-16T20:44:23.217Z,99758.06
2022-11-16T20:46:52.820Z,99760.84
2022-11-16T20:49:20.649Z,99756.46
2022-11-16T20:51:48.692Z,99759.33
2022-11-16T20:54:16.134Z,99760.46
2022-11-16T20:56:44.970Z,99758.80
2022-11-16T20:59:12.371Z,99755.89
2022-11-16T21:01:41.908Z,99756.71
2022-11-16T21:04:11.170Z,99760.39
2022-11-16T21:06:38.487Z,99756.63
2022-11-16T21:09:05.978Z,99759.11
2022-11-16T21:11:52.615Z,99761.97
2022-11-16T21:14:20.659Z,99760.41
2022-11-16T21:16:48.225Z,99755.95
2022-11-16T21:19:16.150Z,99757.67
2022-11-16T21:21:43.433Z,99754.89
2022-11-16T21:24:11.224Z,99759.36
2022-11-16T21:26:39.058Z,99759.84
2022-11-16T21:29:07.034Z,99753.68
2022-11-16T21:31:36.459Z,99757.33
2022-11-16T21:34:06.650Z,99757.56
2022-11-16T21:36:34.616Z,99759.41
2022-11-16T21:39:02.195Z,99756.44
2022-11-16T21:41:29.494Z,99760.84
2022-11-16T21:43:56.872Z,99760.73
2022-11-16T21:46:26.850Z,99758.12
2022-11-16T21:48:57.015Z,99756.24
2022-11-16T21:51:26.557Z,99758.04
2022-11-16T21:53:54.644Z,99759.48
2022-11-16T21:56:25.023Z,99763.08
2022-11-16T21:58:53.838Z,99763.20
2022-11-16T22:01:22.740Z,99763.04
2022-11-16T22:04:10.427Z,99765.27
2022-11-16T22:06:56.918Z,99769.05
2022-11-16T22:09:24.472Z,99769.88
2022-11-16T22:14:56.438Z,99773.38
2022-11-16T22:17:24.017Z,99775.05
2022-11-16T22:20:13.950Z,99776.84
2022-11-16T22:22:41.508Z,99780.04
2022-11-16T22:25:09.902Z,99770.84
2022-11-16T22:27:58.385Z,99777.33
2022-11-16T22:30:25.206Z,99777.02
2022-11-16T22:32:53.001Z,99780.30
2022-11-16T22:35:21.106Z,99777.75
2022-11-16T22:37:49.284Z,99778.59
2022-11-16T22:40:17.983Z,99775.48
2022-11-16T22:42:46.505Z,99774.21
2022-11-16T22:45:13.859Z,99770.81
2022-11-16T22:47:41.141Z,99772.66
2022-11-16T22:50:10.250Z,99764.89
2022-11-16T22:52:38.369Z,99764.80
2022-11-16T22:55:07.167Z,99767.68
2022-11-16T22:57:35.145Z,99765.64
2022-11-16T23:00:05.873Z,99770.77
2022-11-16T23:02:36.569Z,99775.40
2022-11-16T23:05:04.506Z,99777.00
2022-11-16T23:07:31.999Z,99769.80
2022-11-16T23:09:59.648Z,99773.12
2022-11-16T23:12:45.992Z,99774.96
2022-11-16T23:15:32.902Z,99772.67
2022-11-16T23:18:00.669Z,99772.31
2022-11-16T23:20:46.793Z,99770.12
2022-11-16T23:23:37.077Z,99770.94
2022-11-16T23:26:31.819Z,99767.16
2022-11-16T23:28:59.628Z,99770.25
2022-11-16T23:31:27.094Z,99768.16
2022-11-16T23:33:54.560Z,99765.37
2022-11-16T23:36:22.043Z,99764.41
2022-11-16T23:38:50.017Z,99763.23
2022-11-16T23:41:36.254Z,99762.91
2022-11-16T23:44:05.014Z,99761.20
2022-11-16T23:46:34.029Z,99766.19
2022-11-16T23:49:01.878Z,99758.62
2022-11-16T23:51:29.349Z,99757.22
2022-11-16T23:53:56.949Z,99750.83
2022-11-16T23:56:24.725Z,99743.50
2022-11-16T23:58:57.151Z,99737.39
